createdAt,value
2019-05-09T00:01:24.834Z,99582.98
2019-05-09T00:03:54.446Z,99574.22
2019-05-09T00:06:24.127Z,99563.30
2019-05-09T00:08:53.433Z,99572.28
2019-05-09T00:11:24.609Z,99576.02
2019-05-09T00:13:53.971Z,99571.42
2019-05-09T00:16:23.628Z,99576.98
2019-05-09T00:18:54.144Z,99581.33
2019-05-09T00:21:29.204Z,99576.66
2019-05-09T00:23:58.126Z,99572.97
2019-05-09T00:26:27.300Z,99575.61
2019-05-09T00:29:15.517Z,99580.39
2019-05-09T00:31:54.316Z,99581.71
2019-05-09T00:34:36.367Z,99585.41
2019-05-09T00:37:05.310Z,99591.66
2019-05-09T00:39:34.308Z,99580.54
2019-05-09T00:42:04.422Z,99586.67
2019-05-09T00:44:54.344Z,99581.86
2019-05-09T00:47:29.592Z,99588.55
2019-05-09T00:50:00.330Z,99593.48
2019-05-09T00:52:29.363Z,99590.48
2019-05-09T00:54:58.271Z,99584.94
2019-05-09T00:57:36.119Z,99589.39
2019-05-09T01:00:24.098Z,99587.58
2019-05-09T01:02:54.221Z,99585.09
2019-05-09T01:05:23.944Z,99586.88
2019-05-09T01:07:53.767Z,99586.41
2019-05-09T01:10:23.738Z,99591.73
2019-05-09T01:12:54.203Z,99587.78
2019-05-09T01:15:24.083Z,99591.69
2019-05-09T01:17:53.813Z,99594.88
2019-05-09T01:20:24.164Z,99593.06
2019-05-09T01:22:54.176Z,99590.16
2019-05-09T01:25:43.492Z,99591.19
2019-05-09T01:28:13.947Z,99594.74
2019-05-09T01:30:43.827Z,99569.28
2019-05-09T01:33:25.802Z,99591.66
2019-05-09T01:35:54.695Z,99589.25
2019-05-09T01:38:23.785Z,99595.23
2019-05-09T01:40:53.394Z,99593.83
2019-05-09T01:43:40.796Z,99591.19
2019-05-09T01:46:09.879Z,99595.14
2019-05-09T01:48:38.748Z,99585.85
2019-05-09T01:51:07.719Z,99585.91
2019-05-09T01:53:40.163Z,99583.41
2019-05-09T01:56:09.338Z,99580.64
2019-05-09T01:58:38.257Z,99578.39
2019-05-09T02:01:08.979Z,99583.54
2019-05-09T02:03:38.029Z,99585.21
2019-05-09T02:06:30.056Z,99584.85
2019-05-09T02:08:46.925Z,99575.63
2019-05-09T02:11:15.991Z,99584.16
2019-05-09T02:13:44.954Z,99584.51
2019-05-09T02:16:33.654Z,99586.18
2019-05-09T02:19:09.079Z,99582.94
2019-05-09T02:21:38.124Z,99586.54
2019-05-09T02:24:07.237Z,99583.11
2019-05-09T02:26:56.431Z,99580.69
2019-05-09T02:29:25.345Z,99580.34
2019-05-09T02:31:54.811Z,99587.78
2019-05-09T02:34:24.909Z,99593.93
2019-05-09T02:36:54.142Z,99590.20
2019-05-09T02:39:23.222Z,99584.56
2019-05-09T02:42:04.807Z,99583.98
2019-05-09T02:44:23.353Z,99586.85
2019-05-09T02:47:21.609Z,99584.08
2019-05-09T02:49:50.750Z,99589.97
2019-05-09T02:52:20.073Z,99590.36
2019-05-09T02:54:50.116Z,99593.12
2019-05-09T02:57:19.209Z,99571.44
2019-05-09T03:00:08.712Z,99593.70
2019-05-09T03:03:01.493Z,99594.80
2019-05-09T03:05:38.539Z,99597.31
2019-05-09T03:08:09.012Z,99589.04
2019-05-09T03:10:38.133Z,99587.11
2019-05-09T03:13:09.096Z,99587.11
2019-05-09T03:15:39.395Z,99585.47
2019-05-09T03:18:09.119Z,99590.99
2019-05-09T03:20:58.589Z,99590.36
2019-05-09T03:23:28.725Z,99589.77
2019-05-09T03:25:58.827Z,99600.45
2019-05-09T03:28:43.909Z,99587.39
2019-05-09T03:31:14.020Z,99593.02
2019-05-09T03:33:42.837Z,99594.72
2019-05-09T03:36:11.691Z,99605.27
2019-05-09T03:38:41.381Z,99600.33
2019-05-09T03:41:10.314Z,99599.25
2019-05-09T03:43:39.196Z,99605.24
2019-05-09T03:46:17.999Z,99611.00
2019-05-09T03:48:49.251Z,99615.66
2019-05-09T03:51:18.444Z,99619.27
2019-05-09T03:53:48.401Z,99615.66
2019-05-09T03:56:20.413Z,99619.98
2019-05-09T03:58:49.324Z,99617.95
2019-05-09T04:01:18.162Z,99624.19
2019-05-09T04:03:48.117Z,99629.92
2019-05-09T04:06:18.447Z,99628.74
2019-05-09T04:08:48.191Z,99629.21
2019-05-09T04:11:18.479Z,99622.50
2019-05-09T04:13:53.647Z,99633.30
2019-05-09T04:16:22.458Z,99634.12
2019-05-09T04:18:51.730Z,99631.27
2019-05-09T04:21:20.551Z,99629.11
2019-05-09T04:23:49.391Z,99633.88
2019-05-09T04:26:32.283Z,99631.50
2019-05-09T04:29:01.282Z,99630.53
2019-05-09T04:31:30.175Z,99628.26
2019-05-09T04:33:59.187Z,99632.67
2019-05-09T04:36:40.106Z,99636.02
2019-05-09T04:39:12.748Z,99628.19
2019-05-09T04:41:41.676Z,99630.35
2019-05-09T04:44:19.265Z,99638.49
2019-05-09T04:46:44.741Z,99636.16
2019-05-09T04:49:13.791Z,99635.44
2019-05-09T04:51:42.682Z,99638.23
2019-05-09T04:54:11.644Z,99638.23
2019-05-09T04:56:41.720Z,99634.77
2019-05-09T04:59:10.555Z,99638.80
2019-05-09T05:01:47.747Z,99637.00
2019-05-09T05:04:18.041Z,99643.48
2019-05-09T05:06:47.794Z,99642.73
2019-05-09T05:09:20.489Z,99639.82
2019-05-09T05:11:49.046Z,99652.24
2019-05-09T05:14:23.922Z,99645.98
2019-05-09T05:16:55.281Z,99651.23
2019-05-09T05:19:30.966Z,99652.28
2019-05-09T05:21:59.682Z,99652.73
2019-05-09T05:24:39.427Z,99655.06
2019-05-09T05:27:08.541Z,99652.28
2019-05-09T05:29:40.725Z,99662.05
2019-05-09T05:32:13.889Z,99663.81
2019-05-09T05:35:01.966Z,99665.53
2019-05-09T05:37:30.971Z,99669.19
2019-05-09T05:40:00.076Z,99674.40
2019-05-09T05:42:28.974Z,99678.45
2019-05-09T05:44:58.388Z,99680.89
2019-05-09T05:47:48.478Z,99679.68
2019-05-09T05:50:17.629Z,99686.94
2019-05-09T05:52:47.597Z,99682.23
2019-05-09T05:55:18.229Z,99683.42
2019-05-09T05:57:47.937Z,99684.91
2019-05-09T06:00:19.767Z,99685.10
2019-05-09T06:02:48.690Z,99686.41
2019-05-09T06:05:18.737Z,99696.98
2019-05-09T06:07:48.308Z,99695.36
2019-05-09T06:10:18.644Z,99697.58
2019-05-09T06:12:48.277Z,99703.75
2019-05-09T06:15:18.252Z,99708.97
2019-05-09T06:17:48.436Z,99713.45
2019-05-09T06:20:17.998Z,99719.38
2019-05-09T06:22:47.821Z,99713.55
2019-05-09T06:25:20.646Z,99714.53
2019-05-09T06:27:48.407Z,99718.55
2019-05-09T06:30:28.113Z,99715.77
2019-05-09T06:32:58.094Z,99713.31
2019-05-09T06:35:28.261Z,99722.16
2019-05-09T06:37:58.752Z,99718.73
2019-05-09T06:40:29.037Z,99712.09
2019-05-09T06:42:59.333Z,99713.91
2019-05-09T06:45:45.163Z,99723.16
2019-05-09T06:48:17.860Z,99719.58
2019-05-09T06:50:48.380Z,99725.35
2019-05-09T06:53:18.232Z,99725.73
2019-05-09T06:55:47.674Z,99724.70
2019-05-09T06:58:32.010Z,99727.39
2019-05-09T07:01:18.973Z,99733.69
2019-05-09T07:03:49.632Z,99735.98
2019-05-09T07:06:29.589Z,99737.00
2019-05-09T07:09:20.783Z,99743.23
2019-05-09T07:11:49.856Z,99742.78
2019-05-09T07:14:32.698Z,99749.27
2019-05-09T07:16:59.818Z,99752.50
2019-05-09T07:19:29.072Z,99752.58
2019-05-09T07:22:05.134Z,99758.98
2019-05-09T07:24:58.081Z,99753.72
2019-05-09T07:27:25.313Z,99757.59
2019-05-09T07:29:58.109Z,99750.80
2019-05-09T07:32:27.970Z,99755.75
2019-05-09T07:35:00.842Z,99755.13
2019-05-09T07:37:30.091Z,99756.80
2019-05-09T07:39:59.269Z,99764.39
2019-05-09T07:42:28.583Z,99766.81
2019-05-09T07:44:59.134Z,99760.52
2019-05-09T07:47:28.417Z,99769.32
2019-05-09T07:49:58.548Z,99768.11
2019-05-09T07:52:28.484Z,99776.56
2019-05-09T07:54:58.103Z,99763.78
2019-05-09T07:57:28.558Z,99767.22
2019-05-09T07:59:58.567Z,99771.86
2019-05-09T08:02:28.355Z,99777.53
2019-05-09T08:04:58.269Z,99775.12
2019-05-09T08:07:29.087Z,99778.59
2019-05-09T08:09:58.385Z,99776.12
2019-05-09T08:12:28.443Z,99775.08
2019-05-09T08:15:10.375Z,99781.41
2019-05-09T08:17:28.831Z,99775.36
2019-05-09T08:19:58.446Z,99771.64
2019-05-09T08:22:32.342Z,99772.96
2019-05-09T08:24:58.725Z,99769.36
2019-05-09T08:27:30.040Z,99781.26
2019-05-09T08:29:58.876Z,99774.13
2019-05-09T08:32:28.733Z,99778.84
2019-05-09T08:34:59.009Z,99787.91
2019-05-09T08:37:28.498Z,99785.75
2019-05-09T08:39:57.976Z,99787.67
2019-05-09T08:42:29.333Z,99786.55
2019-05-09T08:44:59.273Z,99786.20
2019-05-09T08:47:28.355Z,99766.86
2019-05-09T08:50:13.908Z,99780.85
2019-05-09T08:52:42.967Z,99784.25
2019-05-09T08:55:11.893Z,99788.45
2019-05-09T08:57:41.367Z,99795.99
2019-05-09T09:00:11.007Z,99790.83
2019-05-09T09:02:40.137Z,99801.52
2019-05-09T09:05:10.322Z,99797.39
2019-05-09T09:07:39.363Z,99800.74
2019-05-09T09:10:08.992Z,99799.75
2019-05-09T09:12:38.587Z,99804.95
2019-05-09T09:15:13.352Z,99804.38
2019-05-09T09:17:43.012Z,99804.28
2019-05-09T09:20:12.461Z,99797.09
2019-05-09T09:22:41.625Z,99803.76
2019-05-09T09:25:10.893Z,99803.54
2019-05-09T09:27:41.073Z,99800.69
2019-05-09T09:30:20.291Z,99801.58
2019-05-09T09:32:41.958Z,99801.23
2019-05-09T09:35:12.129Z,99802.47
2019-05-09T09:37:48.370Z,99806.75
2019-05-09T09:40:13.248Z,99803.94
2019-05-09T09:42:42.366Z,99799.97
2019-05-09T09:45:11.830Z,99801.44
2019-05-09T09:47:41.125Z,99798.13
2019-05-09T09:50:11.297Z,99800.94
2019-05-09T09:52:40.314Z,99800.94
2019-05-09T09:55:10.539Z,99808.73
2019-05-09T09:57:40.304Z,99800.85
2019-05-09T10:00:38.235Z,99813.78
2019-05-09T10:03:08.015Z,99818.50
2019-05-09T10:08:23.965Z,99822.05
2019-05-09T10:10:53.078Z,99821.87
2019-05-09T10:13:22.222Z,99817.13
2019-05-09T10:16:01.969Z,99817.13
2019-05-09T10:18:48.647Z,99824.33
2019-05-09T10:21:21.511Z,99816.17
2019-05-09T10:23:50.532Z,99822.03
2019-05-09T10:26:19.599Z,99819.28
2019-05-09T10:28:48.784Z,99816.90
2019-05-09T10:31:18.192Z,99817.84
2019-05-09T10:33:48.252Z,99817.84
2019-05-09T10:36:18.532Z,99819.59
2019-05-09T10:38:47.957Z,99814.39
2019-05-09T10:41:18.004Z,99810.70
2019-05-09T10:43:54.022Z,99805.56
2019-05-09T10:46:55.928Z,99808.11
2019-05-09T10:49:16.676Z,99813.13
2019-05-09T10:51:45.786Z,99804.27
2019-05-09T10:54:14.978Z,99800.52
2019-05-09T10:56:43.982Z,99800.52
2019-05-09T10:59:13.707Z,99804.19
2019-05-09T11:01:42.781Z,99807.08
2019-05-09T11:04:11.882Z,99811.36
2019-05-09T11:06:41.114Z,99797.13
2019-05-09T11:09:11.105Z,99795.88
2019-05-09T11:11:40.333Z,99795.52
2019-05-09T11:14:09.438Z,99793.70
2019-05-09T11:16:45.813Z,99788.86
2019-05-09T11:19:10.129Z,99793.87
2019-05-09T11:21:39.478Z,99797.48
2019-05-09T11:24:09.190Z,99800.15
2019-05-09T11:26:39.817Z,99794.63
2019-05-09T11:29:09.235Z,99793.14
2019-05-09T11:31:38.731Z,99797.73
2019-05-09T11:34:08.944Z,99793.33
2019-05-09T11:36:39.218Z,99792.81
2019-05-09T11:39:10.660Z,99790.22
2019-05-09T11:41:39.968Z,99788.11
2019-05-09T11:44:08.977Z,99790.89
2019-05-09T11:46:38.551Z,99783.20
2019-05-09T11:49:08.471Z,99796.07
2019-05-09T11:51:37.819Z,99791.12
2019-05-09T11:54:09.148Z,99790.89
2019-05-09T11:56:38.400Z,99792.81
2019-05-09T11:59:08.063Z,99794.97
2019-05-09T12:01:39.725Z,99792.27
2019-05-09T12:04:08.704Z,99792.55
2019-05-09T12:06:38.604Z,99805.51
2019-05-09T12:09:08.909Z,99803.96
2019-05-09T12:11:43.519Z,99805.37
2019-05-09T12:14:09.788Z,99804.33
2019-05-09T12:16:39.084Z,99797.27
2019-05-09T12:19:07.949Z,99802.05
2019-05-09T12:21:46.869Z,99801.87
2019-05-09T12:24:09.215Z,99800.47
2019-05-09T12:26:39.242Z,99796.84
2019-05-09T12:29:08.786Z,99796.17
2019-05-09T12:31:38.855Z,99804.38
2019-05-09T12:34:09.128Z,99807.59
2019-05-09T12:36:39.836Z,99808.29
2019-05-09T12:39:09.747Z,99792.89
2019-05-09T12:41:38.985Z,99790.27
2019-05-09T12:44:09.019Z,99797.38
2019-05-09T12:46:39.318Z,99793.56
2019-05-09T12:49:09.133Z,99791.41
2019-05-09T12:51:38.360Z,99792.12
2019-05-09T12:54:08.734Z,99790.77
2019-05-09T12:56:38.583Z,99792.44
2019-05-09T12:59:09.189Z,99793.77
2019-05-09T13:01:40.768Z,99792.41
2019-05-09T13:04:30.253Z,99790.09
2019-05-09T13:06:59.689Z,99784.72
2019-05-09T13:09:28.821Z,99783.94
2019-05-09T13:11:58.722Z,99792.05
2019-05-09T13:14:28.603Z,99792.89
2019-05-09T13:17:04.632Z,99789.91
2019-05-09T13:19:38.285Z,99792.05
2019-05-09T13:22:08.357Z,99788.73
2019-05-09T13:24:37.982Z,99791.39
2019-05-09T13:27:07.863Z,99793.61
2019-05-09T13:29:38.130Z,99789.23
2019-05-09T13:32:08.819Z,99794.23
2019-05-09T13:34:39.894Z,99790.52
2019-05-09T13:37:10.164Z,99789.56
2019-05-09T13:39:41.161Z,99789.38
2019-05-09T13:42:10.475Z,99790.73
2019-05-09T13:44:41.576Z,99788.26
2019-05-09T13:47:11.173Z,99787.27
2019-05-09T13:49:41.133Z,99797.22
2019-05-09T13:52:10.456Z,99794.28
2019-05-09T13:54:39.489Z,99794.59
2019-05-09T13:57:08.882Z,99802.28
2019-05-09T13:59:38.023Z,99798.60
2019-05-09T14:02:07.386Z,99805.30
2019-05-09T14:04:39.878Z,99801.25
2019-05-09T14:07:09.229Z,99802.73
2019-05-09T14:09:39.232Z,99801.57
2019-05-09T14:12:09.406Z,99808.55
2019-05-09T14:14:43.524Z,99805.72
2019-05-09T14:17:14.486Z,99807.23
2019-05-09T14:19:46.869Z,99812.88
2019-05-09T14:22:14.795Z,99811.46
2019-05-09T14:24:43.846Z,99817.84
2019-05-09T14:27:12.960Z,99819.06
2019-05-09T14:29:42.075Z,99815.03
2019-05-09T14:32:11.204Z,99812.23
2019-05-09T14:34:42.757Z,99811.59
2019-05-09T14:37:12.143Z,99814.56
2019-05-09T14:39:54.985Z,99820.23
2019-05-09T14:42:14.455Z,99814.89
2019-05-09T14:44:44.007Z,99815.52
2019-05-09T14:47:13.323Z,99814.54
2019-05-09T14:49:44.685Z,99809.19
2019-05-09T14:52:14.128Z,99807.89
2019-05-09T14:54:43.628Z,99806.90
2019-05-09T14:57:13.306Z,99801.58
2019-05-09T14:59:43.165Z,99807.30
2019-05-09T15:02:13.867Z,99800.91
2019-05-09T15:04:43.059Z,99803.30
2019-05-09T15:07:12.461Z,99803.48
2019-05-09T15:09:41.916Z,99807.11
2019-05-09T15:12:11.081Z,99806.91
2019-05-09T15:14:40.731Z,99802.58
2019-05-09T15:17:10.100Z,99806.23
2019-05-09T15:19:39.537Z,99806.55
2019-05-09T15:22:09.449Z,99803.89
2019-05-09T15:24:38.981Z,99793.75
2019-05-09T15:27:08.439Z,99803.65
2019-05-09T15:29:39.106Z,99802.95
2019-05-09T15:32:12.251Z,99803.87
2019-05-09T15:34:40.314Z,99806.52
2019-05-09T15:37:09.494Z,99813.77
2019-05-09T15:39:38.836Z,99809.63
2019-05-09T15:47:44.744Z,99800.52
2019-05-09T15:50:20.075Z,99812.88
2019-05-09T15:56:13.258Z,99831.97
2019-05-09T15:58:42.087Z,99834.42
2019-05-09T16:01:11.030Z,99831.91
2019-05-09T16:03:40.557Z,99839.22
2019-05-09T16:06:09.443Z,99846.41
2019-05-09T16:08:38.312Z,99839.40
2019-05-09T16:11:28.571Z,99833.20
2019-05-09T16:13:57.610Z,99835.73
2019-05-09T16:16:30.920Z,99833.57
2019-05-09T16:22:49.333Z,99842.23
2019-05-09T16:25:18.954Z,99845.82
2019-05-09T16:27:48.488Z,99846.71
2019-05-09T16:33:14.562Z,99843.70
2019-05-09T16:35:43.557Z,99852.61
2019-05-09T16:39:24.097Z,99848.31
2019-05-09T16:42:05.302Z,99845.41
2019-05-09T16:45:19.136Z,99852.92
2019-05-09T16:51:37.918Z,99855.23
2019-05-09T16:57:46.241Z,99861.83
2019-05-09T17:00:30.394Z,99863.96
2019-05-09T17:02:59.364Z,99864.27
2019-05-09T17:05:28.579Z,99861.05
2019-05-09T17:15:08.475Z,99862.78
2019-05-09T17:30:42.187Z,99849.92
2019-05-09T17:33:42.322Z,99864.27
2019-05-09T17:36:06.851Z,99871.35
2019-05-09T17:38:38.209Z,99859.95
2019-05-09T17:41:28.415Z,99858.13
2019-05-09T17:44:31.435Z,99867.30
2019-05-09T17:47:48.789Z,99869.28
2019-05-09T17:54:03.613Z,99879.31
2019-05-09T17:56:32.626Z,99882.48
2019-05-09T17:59:02.008Z,99889.84
2019-05-09T18:01:31.342Z,99892.32
2019-05-09T18:04:00.395Z,99893.54
2019-05-09T18:06:29.518Z,99901.34
2019-05-09T18:08:58.650Z,99896.94
2019-05-09T18:11:27.525Z,99903.76
2019-05-09T18:13:56.565Z,99903.41
2019-05-09T18:16:28.516Z,99908.99
2019-05-09T18:18:58.834Z,99913.00
2019-05-09T18:21:46.526Z,99919.98
2019-05-09T18:24:04.639Z,99923.80
2019-05-09T18:26:33.717Z,99919.48
2019-05-09T18:29:02.845Z,99925.10
2019-05-09T18:31:54.995Z,99925.39
2019-05-09T18:34:24.325Z,99926.46
2019-05-09T18:36:53.408Z,99924.44
2019-05-09T18:39:22.666Z,99923.17
2019-05-09T18:41:51.569Z,99934.08
2019-05-09T18:44:20.650Z,99932.46
2019-05-09T18:46:49.687Z,99934.28
2019-05-09T18:49:18.581Z,99935.12
2019-05-09T18:52:02.426Z,99934.39
2019-05-09T18:54:18.221Z,99940.17
2019-05-09T18:56:57.388Z,99937.98
2019-05-09T18:59:26.386Z,99939.84
2019-05-09T19:01:55.708Z,99944.77
2019-05-09T19:04:24.808Z,99946.50
2019-05-09T19:06:54.243Z,99940.25
2019-05-09T19:09:23.225Z,99951.53
2019-05-09T19:11:52.129Z,99948.31
2019-05-09T19:14:23.217Z,99953.42
2019-05-09T19:17:10.386Z,99958.21
2019-05-09T19:20:02.595Z,99962.39
2019-05-09T19:22:31.728Z,99967.35
2019-05-09T19:25:00.734Z,99969.62
2019-05-09T19:27:29.755Z,99970.98
2019-05-09T19:29:58.602Z,99965.86
2019-05-09T19:32:27.755Z,99954.27
2019-05-09T19:34:57.157Z,99981.30
2019-05-09T19:37:26.440Z,99981.30
2019-05-09T19:39:55.670Z,99968.05
2019-05-09T19:42:24.614Z,99976.77
2019-05-09T19:44:53.611Z,99976.77
2019-05-09T19:47:22.427Z,99968.50
2019-05-09T19:49:51.340Z,99978.90
2019-05-09T19:52:20.255Z,99977.23
2019-05-09T19:54:49.118Z,99977.72
2019-05-09T19:57:17.988Z,99974.59
2019-05-09T19:59:46.831Z,99974.59
2019-05-09T20:02:15.821Z,99983.80
2019-05-09T20:04:44.808Z,99979.30
2019-05-09T20:07:14.172Z,99987.88
2019-05-09T20:09:51.443Z,99988.05
2019-05-09T20:12:45.338Z,99991.30
2019-05-09T20:15:16.594Z,99987.18
2019-05-09T20:17:45.490Z,99987.18
2019-05-09T20:20:14.755Z,99995.48
2019-05-09T20:22:52.396Z,99998.58
2019-05-09T20:25:14.800Z,99998.16
2019-05-09T20:27:43.799Z,100002.69
2019-05-09T20:30:12.900Z,100009.80
2019-05-09T20:32:41.934Z,100011.39
2019-05-09T20:35:12.069Z,100016.27
2019-05-09T20:37:41.117Z,100018.09
2019-05-09T20:40:10.381Z,100019.95
2019-05-09T20:42:39.720Z,100022.86
2019-05-09T20:45:10.099Z,100023.22
2019-05-09T20:47:41.117Z,100019.99
2019-05-09T20:50:11.541Z,100019.41
2019-05-09T20:52:40.783Z,100026.15
2019-05-09T20:55:09.990Z,100032.64
2019-05-09T20:57:39.186Z,100035.66
2019-05-09T21:00:32.217Z,100035.66
2019-05-09T21:02:48.870Z,100031.78
2019-05-09T21:05:21.090Z,100037.92
2019-05-09T21:07:50.162Z,100042.02
2019-05-09T21:10:19.340Z,100044.41
2019-05-09T21:12:48.568Z,100050.05
2019-05-09T21:15:17.723Z,100048.97
2019-05-09T21:17:46.925Z,100050.19
2019-05-09T21:20:16.101Z,100052.09
2019-05-09T21:22:45.188Z,100051.38
2019-05-09T21:25:14.504Z,100052.00
2019-05-09T21:27:43.584Z,100058.70
2019-05-09T21:30:13.156Z,100055.22
2019-05-09T21:32:42.227Z,100057.13
2019-05-09T21:35:14.583Z,100056.55
2019-05-09T21:37:43.511Z,100053.06
2019-05-09T21:40:12.926Z,100050.42
2019-05-09T21:42:41.821Z,100058.70
2019-05-09T21:45:10.853Z,100063.39
2019-05-09T21:47:39.758Z,100058.36
2019-05-09T21:50:09.062Z,100060.29
2019-05-09T21:52:37.921Z,100066.06
2019-05-09T21:55:06.920Z,100070.26
2019-05-09T21:57:36.062Z,100070.13
2019-05-09T22:00:08.384Z,100076.03
2019-05-09T22:02:37.408Z,100073.64
2019-05-09T22:05:06.557Z,100075.42
2019-05-09T22:07:35.553Z,100081.94
2019-05-09T22:10:04.891Z,100080.23
2019-05-09T22:12:33.768Z,100081.94
2019-05-09T22:15:04.034Z,100086.00
2019-05-09T22:17:37.965Z,100089.39
2019-05-09T22:20:08.524Z,100089.61
2019-05-09T22:22:37.503Z,100093.00
2019-05-09T22:25:07.905Z,100092.87
2019-05-09T22:27:37.205Z,100097.07
2019-05-09T22:30:07.103Z,100092.01
2019-05-09T22:32:36.121Z,100089.13
2019-05-09T22:35:05.270Z,100100.43
2019-05-09T22:37:34.228Z,100099.97
2019-05-09T22:40:03.172Z,100081.22
2019-05-09T22:42:32.092Z,100098.05
2019-05-09T22:45:00.912Z,100097.09
2019-05-09T22:47:29.803Z,100094.78
2019-05-09T22:49:58.966Z,100094.55
2019-05-09T22:52:27.942Z,100085.19
2019-05-09T22:54:56.797Z,100090.70
2019-05-09T22:57:25.710Z,100085.78
2019-05-09T22:59:54.635Z,100092.14
2019-05-09T23:02:23.621Z,100097.03
2019-05-09T23:04:52.486Z,100100.39
2019-05-09T23:07:21.457Z,100094.05
2019-05-09T23:09:50.675Z,100090.74
2019-05-09T23:12:19.571Z,100094.21
2019-05-09T23:14:48.552Z,100098.51
2019-05-09T23:17:17.352Z,100088.54
2019-05-09T23:19:46.337Z,100090.73
2019-05-09T23:22:15.516Z,100087.70
2019-05-09T23:24:44.928Z,100086.50
2019-05-09T23:27:16.327Z,100087.70
2019-05-09T23:29:45.270Z,100087.67
2019-05-09T23:32:33.682Z,100087.92
2019-05-09T23:35:02.650Z,100090.25
2019-05-09T23:37:31.642Z,100088.80
2019-05-09T23:40:00.487Z,100097.93
2019-05-09T23:42:29.552Z,100096.80
2019-05-09T23:44:58.813Z,100094.04
2019-05-09T23:47:27.690Z,100094.91
2019-05-09T23:49:56.908Z,100087.13
2019-05-09T23:52:26.342Z,100091.20
2019-05-09T23:55:12.676Z,100089.38
2019-05-09T23:57:59.020Z,100090.12
